createdAt,value
2023-01-19T00:01:44.997Z,1.92
2023-01-19T00:04:13.891Z,1.90
2023-01-19T00:06:42.485Z,1.90
2023-01-19T00:09:11.163Z,1.90
2023-01-19T00:11:40.333Z,1.90
2023-01-19T00:14:08.861Z,1.90
2023-01-19T00:16:37.650Z,2.00
2023-01-19T00:19:06.542Z,2.00
2023-01-19T00:21:35.310Z,2.00
2023-01-19T00:24:04.204Z,2.00
2023-01-19T00:26:32.789Z,2.00
2023-01-19T00:29:01.474Z,2.00
2023-01-19T00:31:30.320Z,2.00
2023-01-19T00:33:58.856Z,2.00
2023-01-19T00:36:27.682Z,1.90
2023-01-19T00:38:56.222Z,1.90
2023-01-19T00:41:43.851Z,1.94
2023-01-19T00:44:12.948Z,2.00
2023-01-19T00:46:41.433Z,2.00
2023-01-19T00:49:10.220Z,2.00
2023-01-19T00:51:38.804Z,1.96
2023-01-19T00:54:10.561Z,1.92
2023-01-19T00:56:38.988Z,1.98
2023-01-19T00:59:07.535Z,2.00
2023-01-19T01:01:44.995Z,2.00
2023-01-19T01:04:15.156Z,2.00
2023-01-19T01:06:44.089Z,1.98
2023-01-19T01:09:12.841Z,2.00
2023-01-19T01:11:43.250Z,2.00
2023-01-19T01:14:13.052Z,2.08
2023-01-19T01:16:41.978Z,2.02
2023-01-19T01:19:10.654Z,2.00
2023-01-19T01:21:39.445Z,2.00
2023-01-19T01:24:09.820Z,2.00
2023-01-19T01:26:38.338Z,2.00
2023-01-19T01:29:07.129Z,2.00
2023-01-19T01:31:35.966Z,2.02
2023-01-19T01:34:04.817Z,2.00
2023-01-19T01:36:33.805Z,2.00
2023-01-19T01:39:02.599Z,2.02
2023-01-19T01:41:31.645Z,2.04
2023-01-19T01:44:03.178Z,2.00
2023-01-19T01:46:32.234Z,2.00
2023-01-19T01:49:15.990Z,2.00
2023-01-19T01:51:51.196Z,2.00
2023-01-19T01:54:27.671Z,1.94
2023-01-19T01:57:03.097Z,2.00
2023-01-19T01:59:39.474Z,2.00
2023-01-19T02:02:35.222Z,2.00
2023-01-19T02:05:22.339Z,2.00
2023-01-19T02:09:00.773Z,2.00
2023-01-19T02:11:49.929Z,2.00
2023-01-19T02:14:19.355Z,2.08
2023-01-19T02:16:48.440Z,2.06
2023-01-19T02:19:31.246Z,2.00
2023-01-19T02:22:16.221Z,2.00
2023-01-19T02:24:45.107Z,2.00
2023-01-19T02:27:13.902Z,2.00
2023-01-19T02:29:42.892Z,2.08
2023-01-19T02:32:12.032Z,2.10
2023-01-19T02:34:40.777Z,2.00
2023-01-19T02:37:15.105Z,1.94
2023-01-19T02:39:53.271Z,2.00
2023-01-19T02:42:31.169Z,2.00
2023-01-19T02:45:00.241Z,1.94
2023-01-19T02:47:39.056Z,1.90
2023-01-19T02:50:39.276Z,1.90
2023-01-19T02:53:46.140Z,1.90
2023-01-19T02:56:38.480Z,1.90
2023-01-19T02:59:34.616Z,1.90
2023-01-19T03:02:22.287Z,1.90
2023-01-19T03:05:25.239Z,1.90
2023-01-19T03:08:03.032Z,1.86
2023-01-19T03:11:02.335Z,1.80
2023-01-19T03:13:56.319Z,1.80
2023-01-19T03:16:48.825Z,1.80
2023-01-19T03:19:29.226Z,1.80
2023-01-19T03:22:25.782Z,1.80
2023-01-19T03:24:59.821Z,1.70
2023-01-19T03:27:40.978Z,1.70
2023-01-19T03:30:18.822Z,1.70
2023-01-19T03:32:55.123Z,1.60
2023-01-19T03:35:26.662Z,1.60
2023-01-19T03:37:58.400Z,1.60
2023-01-19T03:40:30.563Z,1.60
2023-01-19T03:43:01.562Z,1.56
2023-01-19T03:45:33.735Z,1.50
2023-01-19T03:48:03.320Z,1.50
2023-01-19T03:50:32.525Z,1.40
2023-01-19T03:53:16.620Z,1.40
2023-01-19T03:55:51.255Z,1.40
2023-01-19T03:58:19.980Z,1.40
2023-01-19T04:00:48.635Z,1.38
2023-01-19T04:03:18.961Z,1.40
2023-01-19T04:05:47.578Z,1.40
2023-01-19T04:08:16.263Z,1.30
2023-01-19T04:10:45.056Z,1.30
2023-01-19T04:13:13.640Z,1.30
2023-01-19T04:15:42.330Z,1.30
2023-01-19T04:18:10.907Z,1.30
2023-01-19T04:20:39.493Z,1.30
2023-01-19T04:23:08.084Z,1.30
2023-01-19T04:25:38.908Z,1.30
2023-01-19T04:28:07.600Z,1.30
2023-01-19T04:30:36.292Z,1.30
2023-01-19T04:33:05.082Z,1.30
2023-01-19T04:35:35.494Z,1.28
2023-01-19T04:38:04.096Z,1.26
2023-01-19T04:40:32.887Z,1.20
2023-01-19T04:43:01.773Z,1.20
2023-01-19T04:45:30.879Z,1.12
2023-01-19T04:47:59.867Z,1.10
2023-01-19T04:50:28.452Z,1.10
2023-01-19T04:52:57.156Z,1.10
2023-01-19T04:55:26.160Z,1.00
2023-01-19T04:57:54.709Z,1.00
2023-01-19T05:00:23.907Z,1.00
2023-01-19T05:02:53.040Z,0.92
2023-01-19T05:05:22.097Z,0.90
2023-01-19T05:07:50.689Z,0.80
2023-01-19T05:10:19.557Z,0.80
2023-01-19T05:12:48.065Z,0.80
2023-01-19T05:15:16.745Z,0.80
2023-01-19T05:17:46.100Z,0.80
2023-01-19T05:20:16.421Z,0.80
2023-01-19T05:22:53.577Z,0.78
2023-01-19T05:25:22.143Z,0.70
2023-01-19T05:27:50.939Z,0.70
2023-01-19T05:30:19.762Z,0.70
2023-01-19T05:32:48.304Z,0.70
2023-01-19T05:35:20.188Z,0.70
2023-01-19T05:37:53.671Z,0.70
2023-01-19T05:40:22.249Z,0.60
2023-01-19T05:42:51.188Z,0.60
2023-01-19T05:45:19.934Z,0.60
2023-01-19T05:47:48.640Z,0.60
2023-01-19T05:50:17.407Z,0.60
2023-01-19T05:52:46.513Z,0.60
2023-01-19T05:55:16.763Z,0.60
2023-01-19T05:57:45.313Z,0.60
2023-01-19T06:00:15.309Z,0.60
2023-01-19T06:02:44.003Z,0.56
2023-01-19T06:05:13.113Z,0.50
2023-01-19T06:07:42.110Z,0.50
2023-01-19T06:10:11.977Z,0.50
2023-01-19T06:12:41.954Z,0.50
2023-01-19T06:15:11.401Z,0.52
2023-01-19T06:17:40.138Z,0.50
2023-01-19T06:20:10.684Z,0.50
2023-01-19T06:22:39.552Z,0.50
2023-01-19T06:25:09.024Z,0.50
2023-01-19T06:27:37.848Z,0.50
2023-01-19T06:30:07.792Z,0.50
2023-01-19T06:32:36.349Z,0.50
2023-01-19T06:35:08.023Z,0.50
2023-01-19T06:37:36.895Z,0.50
2023-01-19T06:40:07.205Z,0.40
2023-01-19T06:42:36.215Z,0.40
2023-01-19T06:45:05.654Z,0.30
2023-01-19T06:47:34.818Z,0.30
2023-01-19T06:50:03.756Z,0.28
2023-01-19T06:52:32.603Z,0.22
2023-01-19T06:55:01.197Z,0.20
2023-01-19T06:57:29.880Z,0.20
2023-01-19T07:00:01.021Z,0.20
2023-01-19T07:02:30.083Z,0.20
2023-01-19T07:04:59.015Z,0.10
2023-01-19T07:07:27.899Z,0.10
2023-01-19T07:09:56.381Z,0.10
2023-01-19T07:12:24.962Z,0.10
2023-01-19T07:14:53.548Z,0.10
2023-01-19T07:17:22.129Z,0.10
2023-01-19T07:19:50.716Z,0.02
2023-01-19T07:22:19.506Z,0.00
2023-01-19T07:24:48.302Z,0.00
2023-01-19T07:27:16.989Z,0.00
2023-01-19T07:29:45.769Z,0.00
2023-01-19T07:32:15.070Z,0.00
2023-01-19T07:34:43.760Z,0.00
2023-01-19T07:37:12.346Z,0.00
2023-01-19T07:39:40.926Z,0.00
2023-01-19T07:42:09.614Z,0.10
2023-01-19T07:44:38.406Z,0.20
2023-01-19T07:47:09.240Z,0.30
2023-01-19T07:49:37.929Z,0.30
2023-01-19T07:52:06.615Z,0.40
2023-01-19T07:54:35.300Z,0.40
2023-01-19T07:57:03.989Z,0.40
2023-01-19T07:59:32.675Z,0.40
2023-01-19T08:02:01.378Z,0.40
2023-01-19T08:04:30.092Z,0.46
2023-01-19T08:06:58.939Z,0.44
2023-01-19T08:09:27.627Z,0.50
2023-01-19T08:11:56.211Z,0.54
2023-01-19T08:14:25.717Z,0.62
2023-01-19T08:16:54.405Z,0.80
2023-01-19T08:19:23.192Z,0.90
2023-01-19T08:21:51.879Z,1.04
2023-01-19T08:24:24.020Z,1.14
2023-01-19T08:27:00.425Z,1.30
2023-01-19T08:29:32.104Z,1.42
2023-01-19T08:32:03.061Z,1.60
2023-01-19T08:34:32.311Z,1.70
2023-01-19T08:37:01.459Z,1.80
2023-01-19T08:39:30.410Z,1.92
2023-01-19T08:42:00.895Z,2.08
2023-01-19T08:44:29.418Z,2.20
2023-01-19T08:46:58.212Z,2.30
2023-01-19T08:49:26.903Z,2.46
2023-01-19T08:51:55.576Z,2.52
2023-01-19T08:54:24.570Z,2.70
2023-01-19T08:56:53.156Z,2.86
2023-01-19T08:59:21.742Z,3.00
2023-01-19T09:01:50.506Z,3.10
2023-01-19T09:04:19.329Z,3.16
2023-01-19T09:06:49.052Z,3.30
2023-01-19T09:09:17.616Z,3.38
2023-01-19T09:11:46.203Z,3.40
2023-01-19T09:14:14.784Z,3.40
2023-01-19T09:16:43.675Z,3.40
2023-01-19T09:19:13.077Z,3.50
2023-01-19T09:21:41.570Z,3.50
2023-01-19T09:24:10.350Z,3.50
2023-01-19T09:26:40.894Z,3.60
2023-01-19T09:29:09.572Z,3.60
2023-01-19T09:31:38.924Z,3.60
2023-01-19T09:34:07.561Z,3.74
2023-01-19T09:36:37.540Z,3.90
2023-01-19T09:39:06.155Z,4.00
2023-01-19T09:41:36.930Z,4.10
2023-01-19T09:44:06.442Z,4.20
2023-01-19T09:46:40.609Z,4.26
2023-01-19T09:49:16.281Z,4.40
2023-01-19T09:51:48.926Z,4.50
2023-01-19T09:54:36.135Z,4.50
2023-01-19T09:57:09.933Z,4.70
2023-01-19T09:59:39.212Z,4.76
2023-01-19T10:02:32.071Z,4.80
2023-01-19T10:05:21.692Z,4.80
2023-01-19T10:08:09.957Z,4.80
2023-01-19T10:10:43.217Z,4.80
2023-01-19T10:13:39.579Z,4.80
2023-01-19T10:16:35.336Z,4.90
2023-01-19T10:19:24.067Z,5.10
2023-01-19T10:21:55.724Z,5.00
2023-01-19T10:24:34.735Z,5.00
2023-01-19T10:27:04.053Z,5.00
2023-01-19T10:29:38.060Z,4.94
2023-01-19T10:32:21.516Z,5.00
2023-01-19T10:34:52.163Z,5.10
2023-01-19T10:37:34.471Z,5.10
2023-01-19T10:40:12.484Z,5.12
2023-01-19T10:42:42.736Z,5.10
2023-01-19T10:45:20.355Z,5.00
2023-01-19T10:47:50.096Z,5.00
2023-01-19T10:50:34.729Z,4.90
2023-01-19T10:53:06.326Z,5.00
2023-01-19T10:55:38.380Z,5.10
2023-01-19T10:58:31.335Z,5.04
2023-01-19T11:01:21.217Z,5.00
2023-01-19T11:03:50.488Z,5.04
2023-01-19T11:06:28.283Z,5.10
2023-01-19T11:09:21.312Z,5.10
2023-01-19T11:11:53.233Z,4.90
2023-01-19T11:14:26.585Z,4.80
2023-01-19T11:16:58.443Z,4.78
2023-01-19T11:19:33.357Z,4.70
2023-01-19T11:22:27.281Z,4.60
2023-01-19T11:25:05.951Z,4.70
2023-01-19T11:27:37.746Z,4.80
2023-01-19T11:30:20.474Z,4.70
2023-01-19T11:32:49.691Z,4.70
2023-01-19T11:35:41.125Z,4.50
2023-01-19T11:38:18.320Z,4.40
2023-01-19T11:40:59.682Z,4.40
2023-01-19T11:43:47.500Z,4.30
2023-01-19T11:46:18.854Z,4.30
2023-01-19T11:48:58.287Z,4.30
2023-01-19T11:51:35.681Z,4.30
2023-01-19T11:54:21.566Z,4.20
2023-01-19T11:56:52.242Z,4.10
2023-01-19T11:59:24.299Z,4.20
2023-01-19T12:01:59.311Z,4.20
2023-01-19T12:04:38.844Z,4.20
2023-01-19T12:07:12.548Z,4.10
2023-01-19T12:09:49.121Z,4.08
2023-01-19T12:12:34.088Z,4.10
2023-01-19T12:15:08.201Z,4.10
2023-01-19T12:17:48.891Z,4.10
2023-01-19T12:20:27.284Z,4.10
2023-01-19T12:23:14.915Z,4.10
2023-01-19T12:26:28.868Z,4.00
2023-01-19T12:29:11.597Z,4.10
2023-01-19T12:31:43.267Z,4.10
2023-01-19T12:34:31.432Z,4.00
2023-01-19T12:37:06.314Z,3.94
2023-01-19T12:39:35.717Z,3.90
2023-01-19T12:42:20.465Z,3.80
2023-01-19T12:45:05.658Z,3.80
2023-01-19T12:47:35.504Z,3.70
2023-01-19T12:50:13.758Z,3.70
2023-01-19T12:52:51.877Z,3.70
2023-01-19T12:55:26.979Z,3.70
2023-01-19T12:58:15.074Z,3.80
2023-01-19T13:00:45.961Z,3.76
2023-01-19T13:03:20.225Z,3.70
2023-01-19T13:05:55.212Z,3.70
2023-01-19T13:09:00.466Z,3.70
2023-01-19T13:11:34.062Z,3.60
2023-01-19T13:14:36.690Z,3.60
2023-01-19T13:17:35.791Z,3.50
2023-01-19T13:20:31.410Z,3.50
2023-01-19T13:23:20.604Z,3.40
2023-01-19T13:26:07.282Z,3.40
2023-01-19T13:28:46.383Z,3.40
2023-01-19T13:31:16.002Z,3.30
2023-01-19T13:33:50.660Z,3.22
2023-01-19T13:36:41.619Z,3.20
2023-01-19T13:39:20.378Z,3.20
2023-01-19T13:41:52.449Z,3.24
2023-01-19T13:44:26.466Z,3.20
2023-01-19T13:46:57.750Z,3.20
2023-01-19T13:49:59.151Z,3.20
2023-01-19T13:52:29.793Z,3.18
2023-01-19T13:55:03.838Z,3.10
2023-01-19T13:57:45.672Z,3.10
2023-01-19T14:00:31.034Z,3.10
2023-01-19T14:03:25.671Z,3.16
2023-01-19T14:05:55.741Z,3.16
2023-01-19T14:08:25.844Z,3.10
2023-01-19T14:10:54.391Z,3.10
2023-01-19T14:13:41.765Z,3.00
2023-01-19T14:16:17.696Z,2.90
2023-01-19T14:18:46.263Z,3.00
2023-01-19T14:21:16.363Z,2.96
2023-01-19T14:24:06.681Z,2.90
2023-01-19T14:26:42.593Z,2.90
2023-01-19T14:29:31.072Z,2.90
2023-01-19T14:32:14.415Z,2.88
2023-01-19T14:34:42.996Z,2.82
2023-01-19T14:37:32.376Z,2.80
2023-01-19T14:40:15.455Z,2.80
2023-01-19T14:42:54.423Z,2.80
2023-01-19T14:45:47.811Z,2.70
2023-01-19T14:48:21.916Z,2.62
2023-01-19T14:51:03.267Z,2.60
2023-01-19T14:53:37.705Z,2.60
2023-01-19T14:56:07.427Z,2.60
2023-01-19T14:58:36.409Z,2.50
2023-01-19T15:01:06.587Z,2.50
2023-01-19T15:03:44.034Z,2.40
2023-01-19T15:06:21.433Z,2.40
2023-01-19T15:08:50.620Z,2.40
2023-01-19T15:11:25.327Z,2.30
2023-01-19T15:13:55.585Z,2.30
2023-01-19T15:16:25.162Z,2.24
2023-01-19T15:18:54.181Z,2.20
2023-01-19T15:21:26.722Z,2.10
2023-01-19T15:23:56.102Z,2.10
2023-01-19T15:26:26.870Z,2.10
2023-01-19T15:28:56.658Z,2.00
2023-01-19T15:31:26.702Z,2.00
2023-01-19T15:33:55.590Z,2.00
2023-01-19T15:36:24.887Z,1.90
2023-01-19T15:38:53.813Z,1.90
2023-01-19T15:41:30.084Z,1.84
2023-01-19T15:43:59.283Z,1.80
2023-01-19T15:46:28.321Z,1.80
2023-01-19T15:48:56.843Z,1.70
2023-01-19T15:51:26.585Z,1.70
2023-01-19T15:53:55.505Z,1.60
2023-01-19T15:56:28.024Z,1.60
2023-01-19T15:58:58.491Z,1.50
2023-01-19T16:01:33.136Z,1.50
2023-01-19T16:04:05.569Z,1.44
2023-01-19T16:06:34.690Z,1.40
2023-01-19T16:09:04.163Z,1.40
2023-01-19T16:11:37.940Z,1.30
2023-01-19T16:14:06.450Z,1.30
2023-01-19T16:16:35.132Z,1.30
2023-01-19T16:19:04.214Z,1.20
2023-01-19T16:21:33.182Z,1.16
2023-01-19T16:24:01.703Z,1.10
2023-01-19T16:26:35.501Z,1.10
2023-01-19T16:29:10.108Z,1.10
2023-01-19T16:31:41.217Z,1.00
2023-01-19T16:34:10.275Z,1.00
2023-01-19T16:36:41.642Z,1.00
2023-01-19T16:39:15.539Z,0.98
2023-01-19T16:41:45.751Z,0.90
2023-01-19T16:44:16.407Z,0.90
2023-01-19T16:46:47.594Z,0.86
2023-01-19T16:49:19.188Z,0.80
2023-01-19T16:51:49.291Z,0.80
2023-01-19T16:54:26.004Z,0.80
2023-01-19T16:56:56.861Z,0.80
2023-01-19T16:59:27.458Z,0.72
2023-01-19T17:01:56.358Z,0.70
2023-01-19T17:04:26.729Z,0.70
2023-01-19T17:06:55.873Z,0.70
2023-01-19T17:09:24.563Z,0.70
2023-01-19T17:11:53.039Z,0.60
2023-01-19T17:14:21.751Z,0.60
2023-01-19T17:16:50.598Z,0.58
2023-01-19T17:19:22.364Z,0.50
2023-01-19T17:21:51.075Z,0.50
2023-01-19T17:24:19.958Z,0.50
2023-01-19T17:26:49.082Z,0.50
2023-01-19T17:29:18.248Z,0.50
2023-01-19T17:31:47.188Z,0.40
2023-01-19T17:34:15.829Z,0.40
2023-01-19T17:36:44.826Z,0.40
2023-01-19T17:39:15.128Z,0.38
2023-01-19T17:41:43.743Z,0.30
2023-01-19T17:44:12.420Z,0.30
2023-01-19T17:46:41.110Z,0.30
2023-01-19T17:49:11.125Z,0.30
2023-01-19T17:51:39.709Z,0.26
2023-01-19T17:54:08.293Z,0.30
2023-01-19T17:56:38.945Z,0.30
2023-01-19T17:59:08.376Z,0.20
2023-01-19T18:01:42.999Z,0.20
2023-01-19T18:04:11.741Z,0.20
2023-01-19T18:06:40.539Z,0.20
2023-01-19T18:09:09.843Z,0.20
2023-01-19T18:11:38.429Z,0.20
2023-01-19T18:14:07.225Z,0.20
2023-01-19T18:16:36.306Z,0.20
2023-01-19T18:19:05.094Z,0.22
2023-01-19T18:21:35.653Z,0.24
2023-01-19T18:24:06.420Z,0.30
2023-01-19T18:26:37.846Z,0.30
2023-01-19T18:29:06.505Z,0.36
2023-01-19T18:31:35.244Z,0.40
2023-01-19T18:34:04.081Z,0.40
2023-01-19T18:36:34.534Z,0.40
2023-01-19T18:39:03.705Z,0.50
2023-01-19T18:41:32.490Z,0.50
2023-01-19T18:44:01.394Z,0.58
2023-01-19T18:46:30.029Z,0.60
2023-01-19T18:48:58.859Z,0.60
2023-01-19T18:51:27.541Z,0.70
2023-01-19T18:53:58.735Z,0.70
2023-01-19T18:56:27.479Z,0.72
2023-01-19T18:58:56.165Z,0.80
2023-01-19T19:01:31.556Z,0.80
2023-01-19T19:04:01.643Z,0.90
2023-01-19T19:06:30.315Z,0.90
2023-01-19T19:09:02.490Z,0.90
2023-01-19T19:11:31.258Z,1.00
2023-01-19T19:14:03.050Z,1.00
2023-01-19T19:16:35.094Z,1.00
2023-01-19T19:19:04.091Z,1.00
2023-01-19T19:21:32.779Z,1.00
2023-01-19T19:24:01.785Z,1.00
2023-01-19T19:26:31.035Z,1.00
2023-01-19T19:29:01.572Z,1.10
2023-01-19T19:31:31.031Z,1.06
2023-01-19T19:34:00.110Z,1.06
2023-01-19T19:36:29.804Z,1.10
2023-01-19T19:39:00.346Z,1.08
2023-01-19T19:41:29.598Z,1.10
2023-01-19T19:43:59.095Z,1.10
2023-01-19T19:46:28.196Z,1.10
2023-01-19T19:48:56.840Z,1.10
2023-01-19T19:51:28.419Z,1.10
2023-01-19T19:54:15.367Z,1.10
2023-01-19T19:56:52.177Z,1.10
2023-01-19T19:59:22.291Z,1.10
2023-01-19T20:01:53.977Z,1.10
2023-01-19T20:04:24.127Z,1.10
2023-01-19T20:06:53.637Z,1.10
2023-01-19T20:09:22.174Z,1.10
2023-01-19T20:11:52.609Z,1.10
2023-01-19T20:14:22.715Z,1.10
2023-01-19T20:16:51.812Z,1.10
2023-01-19T20:19:20.502Z,1.10
2023-01-19T20:21:49.084Z,1.10
2023-01-19T20:24:20.509Z,1.10
2023-01-19T20:26:53.004Z,1.10
2023-01-19T20:29:22.217Z,1.10
2023-01-19T20:31:55.793Z,1.10
2023-01-19T20:34:32.852Z,1.10
2023-01-19T20:37:04.825Z,1.10
2023-01-19T20:39:35.631Z,1.10
2023-01-19T20:42:06.466Z,1.10
2023-01-19T20:44:35.835Z,1.10
2023-01-19T20:47:06.608Z,1.10
2023-01-19T20:49:36.782Z,1.10
2023-01-19T20:52:05.405Z,1.10
2023-01-19T20:54:34.370Z,1.10
2023-01-19T20:57:03.577Z,1.16
2023-01-19T20:59:34.334Z,1.20
2023-01-19T21:02:03.741Z,1.20
2023-01-19T21:04:32.298Z,1.20
2023-01-19T21:07:01.095Z,1.20
2023-01-19T21:09:31.518Z,1.20
2023-01-19T21:12:02.833Z,1.20
2023-01-19T21:14:34.380Z,1.20
2023-01-19T21:17:06.753Z,1.20
2023-01-19T21:19:38.537Z,1.20
2023-01-19T21:22:10.308Z,1.20
2023-01-19T21:24:44.298Z,1.20
2023-01-19T21:27:17.209Z,1.20
2023-01-19T21:29:50.654Z,1.22
2023-01-19T21:32:25.829Z,1.24
2023-01-19T21:34:58.693Z,1.30
2023-01-19T21:37:32.252Z,1.30
2023-01-19T21:40:04.016Z,1.30
2023-01-19T21:42:35.612Z,1.30
2023-01-19T21:45:07.508Z,1.30
2023-01-19T21:47:38.883Z,1.30
2023-01-19T21:50:11.437Z,1.30
2023-01-19T21:52:43.136Z,1.30
2023-01-19T21:55:15.142Z,1.30
2023-01-19T21:57:47.062Z,1.30
2023-01-19T22:00:19.174Z,1.32
2023-01-19T22:03:03.196Z,1.30
2023-01-19T22:05:37.341Z,1.34
2023-01-19T22:08:06.793Z,1.40
2023-01-19T22:10:37.625Z,1.40
2023-01-19T22:13:08.030Z,1.40
2023-01-19T22:15:36.808Z,1.40
2023-01-19T22:18:05.693Z,1.40
2023-01-19T22:20:34.282Z,1.40
2023-01-19T22:23:03.167Z,1.40
2023-01-19T22:25:33.841Z,1.40
2023-01-19T22:28:02.593Z,1.40
2023-01-19T22:30:31.379Z,1.40
2023-01-19T22:33:00.391Z,1.40
2023-01-19T22:35:29.366Z,1.40
2023-01-19T22:37:57.956Z,1.40
2023-01-19T22:40:26.744Z,1.40
2023-01-19T22:42:55.632Z,1.48
2023-01-19T22:45:24.629Z,1.50
2023-01-19T22:47:53.248Z,1.50
2023-01-19T22:50:26.820Z,1.50
2023-01-19T22:52:56.229Z,1.50
2023-01-19T22:55:24.756Z,1.50
2023-01-19T22:57:56.494Z,1.52
2023-01-19T23:00:25.222Z,1.60
2023-01-19T23:02:53.813Z,1.60
2023-01-19T23:05:22.440Z,1.70
2023-01-19T23:07:51.186Z,1.70
2023-01-19T23:10:19.865Z,1.70
2023-01-19T23:12:48.880Z,1.70
2023-01-19T23:15:17.441Z,1.70
2023-01-19T23:17:49.338Z,1.70
2023-01-19T23:20:17.992Z,1.70
2023-01-19T23:22:46.676Z,1.70
2023-01-19T23:25:15.483Z,1.70
2023-01-19T23:27:44.051Z,1.70
2023-01-19T23:30:13.448Z,1.70
2023-01-19T23:32:49.815Z,1.70
2023-01-19T23:35:18.407Z,1.70
2023-01-19T23:37:46.989Z,1.70
2023-01-19T23:40:15.893Z,1.72
2023-01-19T23:42:44.466Z,1.72
2023-01-19T23:45:13.366Z,1.70
2023-01-19T23:47:43.535Z,1.70
2023-01-19T23:50:12.786Z,1.70
2023-01-19T23:52:41.265Z,1.72
2023-01-19T23:55:10.669Z,1.74
2023-01-19T23:57:39.487Z,1.70
